Time;durP1;ratioP1;P1;durP2;ratioP2;P2;SDS_P1;SDS_P2;PMS_P1;PMS_P2;Temp;Humidity;BMP_temperature;BMP_pressure;BME280_temperature;BME280_humidity;BME280_pressure;Samples;Min_cycle;Max_cycle;Signal;HPM_P1;HPM_P2
2021/06/18 00:01:39;;;;;;;11.63;2.90;;;21.20;73.30;;;;;;5072628;28;20025;-81
2021/06/18 00:04:05;;;;;;;7.28;2.95;;;21.20;73.30;;;;;;5074097;28;20538;-81
2021/06/18 00:06:31;;;;;;;5.25;2.65;;;21.20;73.30;;;;;;5074239;28;20029;-80
2021/06/18 00:08:56;;;;;;;14.27;2.90;;;21.10;73.30;;;;;;5074092;28;20028;-80
2021/06/18 00:11:22;;;;;;;3.85;3.10;;;21.20;73.50;;;;;;5073922;28;20074;-80
2021/06/18 00:13:48;;;;;;;4.65;3.00;;;21.10;73.60;;;;;;5073619;28;20028;-81
2021/06/18 00:16:14;;;;;;;5.72;2.70;;;21.20;73.60;;;;;;5072400;28;20052;-80
2021/06/18 00:18:42;;;;;;;6.20;2.60;;;21.20;73.50;;;;;;5073781;28;20419;-80
2021/06/18 00:21:07;;;;;;;4.20;2.58;;;21.20;73.50;;;;;;5073594;28;20085;-80
2021/06/18 00:23:33;;;;;;;4.07;2.70;;;21.20;73.30;;;;;;5073594;28;20084;-80
2021/06/18 00:25:59;;;;;;;4.10;2.72;;;21.20;73.10;;;;;;5073652;28;20027;-80
2021/06/18 00:28:25;;;;;;;5.93;3.05;;;21.20;73.00;;;;;;5073588;28;20021;-80
2021/06/18 00:30:50;;;;;;;4.90;2.75;;;21.20;72.80;;;;;;5073507;28;20024;-82
2021/06/18 00:33:16;;;;;;;11.93;3.00;;;21.30;72.80;;;;;;5073871;28;20025;-80
2021/06/18 00:35:42;;;;;;;6.13;2.50;;;21.30;72.80;;;;;;5073761;28;20082;-79
2021/06/18 00:38:07;;;;;;;3.40;2.60;;;21.30;72.80;;;;;;5073972;28;20076;-78
2021/06/18 00:40:33;;;;;;;2.70;2.50;;;21.30;72.70;;;;;;5075034;28;20443;-79
2021/06/18 00:42:59;;;;;;;4.90;3.15;;;21.30;72.70;;;;;;5074165;28;20017;-78
2021/06/18 00:45:25;;;;;;;9.23;2.90;;;21.30;72.50;;;;;;5073380;28;20074;-79
2021/06/18 00:47:56;;;;;;;3.85;2.80;;;21.30;72.50;;;;;;5073356;28;20024;-79
2021/06/18 00:50:23;;;;;;;5.50;3.50;;;21.30;72.50;;;;;;5081844;28;20024;-79
2021/06/18 00:52:49;;;;;;;7.03;3.22;;;21.20;72.50;;;;;;5079209;28;20321;-79
2021/06/18 00:55:15;;;;;;;6.70;3.15;;;21.30;72.50;;;;;;5082296;28;20048;-79
2021/06/18 00:57:42;;;;;;;6.82;2.80;;;21.20;72.40;;;;;;5079413;28;20062;-80
2021/06/18 01:00:10;;;;;;;6.82;2.80;;;21.20;72.50;;;;;;5079117;28;20017;-80
2021/06/18 01:02:36;;;;;;;5.45;2.70;;;21.20;72.50;;;;;;5073750;28;20419;-79
2021/06/18 01:05:04;;;;;;;6.45;3.08;;;21.10;72.30;;;;;;5074467;28;20355;-80
2021/06/18 01:07:52;;;;;;;2.78;2.50;;;21.10;72.40;;;;;;5074702;28;20039;-79
2021/06/18 01:10:32;;;;;;;14.05;3.65;;;21.10;72.50;;;;;;5074668;28;20348;-79
2021/06/18 01:13:05;;;;;;;5.00;2.90;;;21.00;72.60;;;;;;5074560;28;20527;-80
2021/06/18 01:15:34;;;;;;;6.43;2.75;;;21.00;72.80;;;;;;5073823;28;20059;-79
2021/06/18 01:18:03;;;;;;;3.85;2.70;;;21.00;72.80;;;;;;5073870;28;20017;-80
2021/06/18 01:20:54;;;;;;;5.35;2.67;;;21.00;72.80;;;;;;5073715;28;20088;-80
2021/06/18 01:23:28;;;;;;;8.23;3.00;;;20.90;72.90;;;;;;5072986;28;20070;-81
2021/06/18 01:26:05;;;;;;;3.63;2.65;;;20.90;72.80;;;;;;5072813;28;20025;-80
2021/06/18 01:28:36;;;;;;;5.47;3.05;;;20.90;72.80;;;;;;5073492;28;20081;-79
2021/06/18 01:31:04;;;;;;;7.93;2.53;;;20.90;73.00;;;;;;5072949;28;20424;-80
2021/06/18 01:33:31;;;;;;;6.88;2.97;;;20.90;72.90;;;;;;5072656;28;20028;-80
2021/06/18 01:35:59;;;;;;;7.10;2.40;;;20.90;73.10;;;;;;5072754;28;20016;-80
2021/06/18 01:38:28;;;;;;;3.35;2.47;;;20.90;73.00;;;;;;5073377;28;20020;-80
2021/06/18 01:40:58;;;;;;;7.32;2.53;;;20.90;72.80;;;;;;5072631;28;20035;-79
2021/06/18 01:43:27;;;;;;;6.28;3.30;;;20.90;72.80;;;;;;5072955;28;20020;-79
2021/06/18 01:45:56;;;;;;;6.82;2.50;;;20.90;72.80;;;;;;5072180;28;20028;-79
2021/06/18 01:48:24;;;;;;;6.38;2.60;;;20.90;72.80;;;;;;5071627;28;20028;-80
2021/06/18 01:50:52;;;;;;;9.88;3.88;;;20.90;72.70;;;;;;5072834;28;20055;-79
2021/06/18 01:53:21;;;;;;;3.38;2.70;;;20.90;72.80;;;;;;5073107;28;20047;-80
2021/06/18 01:55:49;;;;;;;4.97;3.75;;;21.00;72.80;;;;;;5073446;28;20036;-81
2021/06/18 01:58:16;;;;;;;5.45;3.17;;;21.00;72.70;;;;;;5072242;28;20017;-81
2021/06/18 02:00:48;;;;;;;3.20;2.88;;;21.00;72.80;;;;;;5071558;28;20119;-82
2021/06/18 02:03:22;;;;;;;;;;;21.00;72.70;;;;;;5073447;28;20425;-82
2021/06/18 02:05:51;;;;;;;8.65;2.83;;;21.00;72.70;;;;;;5073181;28;19911;-81
2021/06/18 02:08:17;;;;;;;3.25;2.50;;;21.10;72.50;;;;;;5072752;28;20378;-82
2021/06/18 02:10:46;;;;;;;14.55;2.65;;;21.10;72.30;;;;;;5072547;28;20075;-79
2021/06/18 02:13:14;;;;;;;5.93;2.78;;;21.20;72.20;;;;;;5072839;28;20041;-79
2021/06/18 02:15:42;;;;;;;4.38;2.88;;;21.20;71.90;;;;;;5076468;28;20029;-79
2021/06/18 02:18:12;;;;;;;10.18;2.83;;;21.30;71.70;;;;;;5076450;28;20108;-79
2021/06/18 02:20:39;;;;;;;4.43;2.88;;;21.30;71.50;;;;;;5076368;28;20328;-80
2021/06/18 02:23:07;;;;;;;4.75;2.90;;;21.40;71.40;;;;;;5076221;28;20029;-80
2021/06/18 02:25:34;;;;;;;5.40;2.90;;;21.40;71.10;;;;;;5076173;28;20047;-79
2021/06/18 02:28:01;;;;;;;6.65;2.90;;;21.50;70.80;;;;;;5076248;28;20017;-79
2021/06/18 02:30:27;;;;;;;7.95;2.78;;;21.60;71.40;;;;;;5076142;28;20021;-79
2021/06/18 02:32:56;;;;;;;4.20;2.70;;;21.60;70.50;;;;;;5076055;28;20036;-78
2021/06/18 02:35:23;;;;;;;2.85;2.50;;;21.60;70.20;;;;;;5075932;28;20783;-80
2021/06/18 02:37:48;;;;;;;4.05;2.90;;;21.60;70.30;;;;;;5076144;28;20146;-81
2021/06/18 02:40:15;;;;;;;6.35;3.00;;;21.60;70.60;;;;;;5075768;28;20103;-78
2021/06/18 02:42:40;;;;;;;8.63;2.47;;;21.80;70.80;;;;;;5075631;28;20396;-78
2021/06/18 02:45:07;;;;;;;5.25;2.65;;;22.30;70.40;;;;;;5075746;28;20031;-78
2021/06/18 02:48:04;;;;;;;5.65;2.70;;;22.80;69.20;;;;;;5079602;28;20032;-79
2021/06/18 02:50:39;;;;;;;3.90;3.03;;;23.30;67.50;;;;;;5079309;28;20024;-78
2021/06/18 02:53:49;;;;;;;4.05;2.60;;;23.80;65.90;;;;;;5087524;28;20036;-81
2021/06/18 02:56:24;;;;;;;6.93;2.83;;;23.70;64.50;;;;;;5084674;28;20053;-81
2021/06/18 02:58:54;;;;;;;4.70;2.65;;;23.30;64.60;;;;;;5084035;28;20020;-80
2021/06/18 03:01:27;;;;;;;6.90;2.70;;;23.10;65.40;;;;;;5079139;28;20107;-81
2021/06/18 03:03:55;;;;;;;6.82;2.72;;;22.80;65.50;;;;;;5076844;28;20016;-81
2021/06/18 03:06:22;;;;;;;8.00;2.63;;;22.70;66.30;;;;;;5076933;28;20021;-80
2021/06/18 03:09:08;;;;;;;3.17;2.88;;;22.60;66.70;;;;;;5076621;28;20028;-80
2021/06/18 03:11:38;;;;;;;4.20;3.30;;;22.50;66.90;;;;;;5076691;28;20025;-81
2021/06/18 03:14:09;;;;;;;6.88;2.70;;;22.40;66.90;;;;;;5075885;28;20028;-81
2021/06/18 03:16:37;;;;;;;5.17;2.83;;;22.50;67.40;;;;;;5076069;28;20024;-81
2021/06/18 03:19:06;;;;;;;6.35;2.90;;;22.60;67.00;;;;;;5075101;28;20020;-81
2021/06/18 03:21:35;;;;;;;6.80;2.63;;;22.50;66.60;;;;;;5074802;28;20028;-81
2021/06/18 03:24:03;;;;;;;7.22;3.00;;;22.40;66.90;;;;;;5075222;28;20031;-80
2021/06/18 03:26:30;;;;;;;5.00;2.80;;;22.30;67.40;;;;;;5073882;28;20055;-78
2021/06/18 03:28:57;;;;;;;10.27;3.05;;;22.20;67.60;;;;;;5074946;28;20025;-79
2021/06/18 03:31:24;;;;;;;5.90;2.65;;;22.10;67.90;;;;;;5074984;28;20087;-79
2021/06/18 03:33:51;;;;;;;7.03;2.95;;;22.10;68.00;;;;;;5074454;28;20036;-79
2021/06/18 03:36:26;;;;;;;4.80;2.90;;;22.10;68.20;;;;;;5074583;28;20026;-80
2021/06/18 03:38:53;;;;;;;4.50;3.00;;;22.10;68.30;;;;;;5073204;28;20090;-80
2021/06/18 03:41:20;;;;;;;5.80;2.67;;;22.00;68.50;;;;;;5072724;28;20043;-81
2021/06/18 03:43:47;;;;;;;4.38;3.13;;;22.00;68.50;;;;;;5074566;28;20456;-80
2021/06/18 03:46:14;;;;;;;3.80;2.85;;;22.10;68.80;;;;;;5074557;28;20052;-80
2021/06/18 03:48:41;;;;;;;10.13;2.80;;;22.20;69.00;;;;;;5074193;28;20047;-80
2021/06/18 03:51:07;;;;;;;3.75;2.63;;;22.40;68.50;;;;;;5072975;28;20115;-80
2021/06/18 03:53:34;;;;;;;12.10;3.28;;;22.50;67.90;;;;;;5074183;28;20074;-80
2021/06/18 03:56:01;;;;;;;4.32;2.97;;;22.60;68.00;;;;;;5073911;28;20048;-79
2021/06/18 03:58:27;;;;;;;10.75;3.08;;;22.70;68.60;;;;;;5074206;28;20021;-80
2021/06/18 04:00:54;;;;;;;4.10;3.00;;;22.80;67.80;;;;;;5074107;28;20502;-80
2021/06/18 04:03:21;;;;;;;5.95;2.85;;;23.10;67.40;;;;;;5073983;28;20020;-80
2021/06/18 04:05:49;;;;;;;6.82;3.00;;;23.30;66.70;;;;;;5073778;28;20024;-80
2021/06/18 04:08:16;;;;;;;5.20;2.60;;;23.40;66.10;;;;;;5073256;28;20032;-81
2021/06/18 04:10:44;;;;;;;6.15;2.80;;;23.70;65.80;;;;;;5073955;28;20043;-80
2021/06/18 04:13:10;;;;;;;5.88;3.33;;;23.90;65.20;;;;;;5074291;28;20442;-80
2021/06/18 04:15:36;;;;;;;6.40;3.80;;;24.00;64.80;;;;;;5072883;28;20085;-79
2021/06/18 04:18:04;;;;;;;5.65;2.95;;;24.50;65.30;;;;;;5073813;28;20021;-80
2021/06/18 04:20:31;;;;;;;6.50;3.20;;;25.50;64.00;;;;;;5073315;28;20016;-79
2021/06/18 04:22:57;;;;;;;4.18;3.00;;;26.80;62.90;;;;;;5073611;28;20158;-81
2021/06/18 04:25:23;;;;;;;3.97;2.75;;;28.20;60.30;;;;;;5073775;28;20514;-81
2021/06/18 04:27:50;;;;;;;6.47;2.38;;;29.20;57.50;;;;;;5072937;28;20024;-80
2021/06/18 04:30:17;;;;;;;4.60;2.80;;;29.40;55.30;;;;;;5073287;28;20045;-81
2021/06/18 04:32:44;;;;;;;10.27;3.05;;;29.40;54.70;;;;;;5073264;28;20060;-81
2021/06/18 04:35:10;;;;;;;5.95;3.55;;;29.30;53.60;;;;;;5072845;28;20047;-81
2021/06/18 04:37:37;;;;;;;3.67;2.78;;;29.20;53.60;;;;;;5072780;28;20017;-81
2021/06/18 04:40:05;;;;;;;5.43;3.00;;;29.60;53.70;;;;;;5072770;28;20040;-81
2021/06/18 04:42:31;;;;;;;6.97;3.00;;;30.10;52.80;;;;;;5073671;28;20059;-82
2021/06/18 04:44:57;;;;;;;5.65;2.70;;;30.70;52.40;;;;;;5073962;28;20040;-81
2021/06/18 04:47:24;;;;;;;7.70;2.90;;;31.10;50.50;;;;;;5075183;28;20056;-81
2021/06/18 04:49:49;;;;;;;9.00;2.90;;;31.30;50.20;;;;;;5079449;28;20016;-81
2021/06/18 04:52:17;;;;;;;6.35;2.83;;;31.40;49.90;;;;;;5077215;28;20109;-81
2021/06/18 04:54:43;;;;;;;4.63;3.05;;;31.80;49.20;;;;;;5077450;28;20044;-81
2021/06/18 04:57:09;;;;;;;7.45;2.53;;;32.10;48.70;;;;;;5078698;28;20060;-83
2021/06/18 04:59:39;;;;;;;6.00;2.97;;;32.30;48.20;;;;;;5073762;28;20016;-82
2021/06/18 05:02:05;;;;;;;3.53;2.70;;;32.50;47.50;;;;;;5074292;28;20024;-80
2021/06/18 05:04:32;;;;;;;4.63;2.80;;;32.70;47.60;;;;;;5074197;28;20020;-81
2021/06/18 05:06:57;;;;;;;7.05;3.00;;;33.10;47.40;;;;;;5074295;28;20032;-81
2021/06/18 05:09:24;;;;;;;9.77;3.15;;;33.70;46.90;;;;;;5073282;28;20093;-81
2021/06/18 05:11:49;;;;;;;5.32;3.50;;;34.20;46.00;;;;;;5072874;28;20142;-81
2021/06/18 05:14:15;;;;;;;3.42;2.78;;;34.40;45.60;;;;;;5073002;28;20040;-81
2021/06/18 05:16:42;;;;;;;3.42;2.70;;;34.60;45.40;;;;;;5071239;28;20024;-82
2021/06/18 05:19:08;;;;;;;10.05;2.83;;;35.20;45.00;;;;;;5072484;28;20158;-82
2021/06/18 05:21:34;;;;;;;5.03;2.70;;;35.60;44.00;;;;;;5072819;28;20409;-80
2021/06/18 05:24:00;;;;;;;6.15;3.10;;;35.60;43.40;;;;;;5072723;28;20021;-81
2021/06/18 05:26:30;;;;;;;7.30;2.90;;;35.80;43.50;;;;;;5071967;28;20046;-81
2021/06/18 05:28:56;;;;;;;6.68;3.17;;;36.00;43.10;;;;;;5070790;28;20378;-82
2021/06/18 05:31:22;;;;;;;5.80;2.78;;;36.20;42.90;;;;;;5072425;28;20036;-83
2021/06/18 05:33:48;;;;;;;4.50;3.00;;;36.10;42.50;;;;;;5071966;28;20020;-83
2021/06/18 05:36:14;;;;;;;2.83;2.60;;;36.10;42.60;;;;;;5072373;28;20086;-83
2021/06/18 05:38:39;;;;;;;6.45;2.72;;;36.00;42.20;;;;;;5072095;28;20035;-83
2021/06/18 05:41:05;;;;;;;12.60;3.45;;;35.50;42.60;;;;;;5072513;28;20020;-84
2021/06/18 05:43:31;;;;;;;6.20;2.50;;;35.40;43.30;;;;;;5072387;28;20020;-82
2021/06/18 05:45:56;;;;;;;3.08;2.50;;;35.30;43.20;;;;;;5072046;28;20035;-83
2021/06/18 05:48:22;;;;;;;4.63;2.63;;;34.90;43.60;;;;;;5071257;28;20108;-83
2021/06/18 05:50:51;;;;;;;4.65;2.63;;;34.40;43.60;;;;;;5070417;28;20081;-83
2021/06/18 05:53:20;;;;;;;4.55;2.90;;;33.80;44.40;;;;;;5071664;28;20031;-83
2021/06/18 05:55:47;;;;;;;5.80;3.40;;;33.40;44.80;;;;;;5070531;28;20040;-83
2021/06/18 05:58:12;;;;;;;5.43;3.10;;;32.70;45.70;;;;;;5072852;28;20545;-82
2021/06/18 06:00:38;;;;;;;5.30;3.10;;;32.30;46.70;;;;;;5072538;28;20048;-82
2021/06/18 06:03:04;;;;;;;7.25;2.78;;;31.90;47.20;;;;;;5071894;28;20074;-82
2021/06/18 06:05:30;;;;;;;5.32;2.97;;;31.70;48.00;;;;;;5072001;28;20021;-83
2021/06/18 06:07:55;;;;;;;9.95;3.00;;;31.50;47.90;;;;;;5072140;28;20027;-84
2021/06/18 06:10:21;;;;;;;7.18;2.90;;;31.00;48.40;;;;;;5071738;28;20130;-80
2021/06/18 06:12:47;;;;;;;8.57;3.33;;;31.00;49.40;;;;;;5072696;28;20021;-82
2021/06/18 06:15:13;;;;;;;9.95;2.88;;;31.30;49.50;;;;;;5071946;28;20020;-83
2021/06/18 06:17:39;;;;;;;6.95;3.10;;;31.70;49.30;;;;;;5071398;28;20021;-82
2021/06/18 06:20:06;;;;;;;6.78;3.10;;;31.90;48.60;;;;;;5073130;28;20593;-82
2021/06/18 06:22:33;;;;;;;9.80;4.45;;;32.00;48.50;;;;;;5072390;28;20035;-83
2021/06/18 06:24:59;;;;;;;5.82;3.20;;;31.70;48.60;;;;;;5070834;28;20024;-83
2021/06/18 06:27:26;;;;;;;5.10;3.72;;;31.90;49.40;;;;;;5072701;28;20055;-83
2021/06/18 06:29:51;;;;;;;6.25;3.15;;;32.40;49.40;;;;;;5071591;28;20025;-82
2021/06/18 06:32:18;;;;;;;5.93;3.05;;;32.90;48.20;;;;;;5075480;28;20039;-82
2021/06/18 06:34:44;;;;;;;3.00;2.72;;;32.90;47.30;;;;;;5076002;28;20383;-83
2021/06/18 06:37:10;;;;;;;7.88;3.38;;;32.90;47.80;;;;;;5071721;28;20081;-83
2021/06/18 06:39:36;;;;;;;6.45;3.13;;;33.00;47.50;;;;;;5076209;28;20021;-81
2021/06/18 06:42:04;;;;;;;4.47;2.83;;;32.90;47.50;;;;;;5080976;28;20021;-83
2021/06/18 06:44:30;;;;;;;5.68;2.90;;;32.50;47.20;;;;;;5078022;28;20048;-82
2021/06/18 06:46:55;;;;;;;11.55;5.90;;;32.00;47.60;;;;;;5076152;28;20529;-81
2021/06/18 06:49:21;;;;;;;8.77;3.97;;;31.60;48.60;;;;;;5071775;28;20471;-83
2021/06/18 06:51:47;;;;;;;6.65;3.40;;;31.40;49.10;;;;;;5072418;28;20036;-83
2021/06/18 06:54:12;;;;;;;6.28;2.95;;;30.90;49.50;;;;;;5070761;28;20048;-83
2021/06/18 06:56:38;;;;;;;9.40;3.35;;;30.50;50.40;;;;;;5073068;28;20036;-87
2021/06/18 06:59:04;;;;;;;5.47;3.47;;;30.20;51.20;;;;;;5070666;28;20541;-86
2021/06/18 07:01:30;;;;;;;5.70;3.03;;;29.90;51.90;;;;;;5075393;28;20021;-85
2021/06/18 07:03:56;;;;;;;5.45;3.00;;;30.00;51.90;;;;;;5075244;28;20021;-84
2021/06/18 07:06:21;;;;;;;7.63;2.90;;;29.70;51.80;;;;;;5074146;28;20102;-84
2021/06/18 07:08:47;;;;;;;7.13;3.38;;;29.40;52.50;;;;;;5075798;28;20032;-84
2021/06/18 07:11:16;;;;;;;12.02;3.20;;;29.30;52.90;;;;;;5075957;28;20052;-84
2021/06/18 07:13:42;;;;;;;5.78;2.88;;;29.00;53.00;;;;;;5076009;28;20029;-84
2021/06/18 07:16:11;;;;;;;3.50;3.20;;;28.50;53.70;;;;;;5075025;28;20027;-86
2021/06/18 07:18:36;;;;;;;11.13;3.65;;;28.10;54.70;;;;;;5075983;28;20025;-84
2021/06/18 07:21:03;;;;;;;8.80;3.40;;;28.00;55.20;;;;;;5077785;28;20025;-86
2021/06/18 07:23:29;;;;;;;8.15;3.40;;;27.90;55.50;;;;;;5075226;28;20046;-85
2021/06/18 07:25:54;;;;;;;7.60;3.30;;;27.90;55.90;;;;;;5075429;28;20024;-83
2021/06/18 07:28:20;;;;;;;5.80;3.60;;;28.00;56.50;;;;;;5075660;28;20040;-83
2021/06/18 07:30:46;;;;;;;12.98;4.15;;;28.20;56.40;;;;;;5075335;28;20902;-83
2021/06/18 07:33:11;;;;;;;10.38;3.15;;;28.40;56.50;;;;;;5075014;28;20062;-83
2021/06/18 07:35:37;;;;;;;5.63;2.92;;;28.70;56.10;;;;;;5075442;28;20031;-84
2021/06/18 07:38:04;;;;;;;7.28;3.40;;;28.60;55.70;;;;;;5075580;28;20370;-80
2021/06/18 07:40:29;;;;;;;11.65;3.38;;;28.30;56.30;;;;;;5074815;28;20074;-86
2021/06/18 07:42:55;;;;;;;5.45;3.20;;;28.10;56.70;;;;;;5075561;28;20028;-85
2021/06/18 07:45:21;;;;;;;4.85;2.88;;;27.80;56.90;;;;;;5074916;28;20021;-85
2021/06/18 07:47:47;;;;;;;8.13;3.85;;;27.50;57.30;;;;;;5075058;28;20108;-85
2021/06/18 07:50:15;;;;;;;6.05;3.20;;;27.20;58.20;;;;;;5073746;28;20035;-85
2021/06/18 07:52:41;;;;;;;6.85;3.30;;;27.10;58.90;;;;;;5073824;28;20055;-85
2021/06/18 07:55:11;;;;;;;6.43;3.10;;;26.90;58.80;;;;;;5074945;28;20048;-84
2021/06/18 07:57:37;;;;;;;6.55;3.45;;;26.70;59.30;;;;;;5074780;28;20025;-85
2021/06/18 08:00:08;;;;;;;5.88;3.13;;;26.50;59.90;;;;;;5075530;28;20344;-84
2021/06/18 08:02:34;;;;;;;5.05;3.13;;;26.30;60.20;;;;;;5075182;28;20082;-85
2021/06/18 08:05:00;;;;;;;6.60;3.30;;;26.10;60.40;;;;;;5076263;28;20025;-85
2021/06/18 08:07:26;;;;;;;11.57;3.95;;;25.90;61.10;;;;;;5076324;28;20055;-84
2021/06/18 08:09:52;;;;;;;8.77;3.47;;;25.90;61.80;;;;;;5077158;28;20093;-85
2021/06/18 08:12:20;;;;;;;4.82;3.38;;;26.10;62.20;;;;;;5073865;28;20021;-84
2021/06/18 08:14:46;;;;;;;5.88;3.30;;;26.40;61.90;;;;;;5072083;28;20162;-85
2021/06/18 08:17:13;;;;;;;6.40;3.00;;;26.70;61.30;;;;;;5074581;28;20024;-84
2021/06/18 08:19:38;;;;;;;9.63;3.42;;;27.10;60.20;;;;;;5074051;28;20447;-86
2021/06/18 08:22:05;;;;;;;5.28;3.20;;;27.20;59.20;;;;;;5075079;28;20036;-84
2021/06/18 08:24:33;;;;;;;9.15;3.55;;;27.20;58.90;;;;;;5075921;28;20024;-84
2021/06/18 08:26:58;;;;;;;4.97;3.20;;;27.10;59.10;;;;;;5086467;28;20085;-82
2021/06/18 08:29:24;;;;;;;4.10;3.28;;;27.10;59.00;;;;;;5086259;28;20029;-83
2021/06/18 08:31:50;;;;;;;10.45;3.20;;;26.90;59.20;;;;;;5084542;28;20099;-83
2021/06/18 08:34:17;;;;;;;6.15;4.05;;;26.70;60.10;;;;;;5084597;28;20024;-83
2021/06/18 08:36:43;;;;;;;5.97;3.33;;;26.60;60.70;;;;;;5075606;28;20035;-85
2021/06/18 08:39:09;;;;;;;9.35;3.83;;;26.70;61.10;;;;;;5075269;28;20021;-84
2021/06/18 08:41:35;;;;;;;7.18;3.22;;;27.00;61.70;;;;;;5074904;28;20484;-84
2021/06/18 08:44:01;;;;;;;4.10;3.30;;;27.30;60.80;;;;;;5076007;28;20075;-84
2021/06/18 08:46:26;;;;;;;8.40;5.90;;;27.50;60.70;;;;;;5074049;28;20516;-85
2021/06/18 08:48:52;;;;;;;5.32;4.30;;;27.70;60.80;;;;;;5073612;28;20103;-84
2021/06/18 08:51:19;;;;;;;6.85;3.55;;;27.90;60.00;;;;;;5073627;28;20033;-86
2021/06/18 08:53:45;;;;;;;20.88;4.75;;;28.10;59.20;;;;;;5073374;28;20032;-83
2021/06/18 08:56:11;;;;;;;6.22;3.22;;;28.10;59.30;;;;;;5073258;28;20459;-85
2021/06/18 08:58:37;;;;;;;9.80;3.30;;;28.10;58.70;;;;;;5073283;28;20094;-85
2021/06/18 09:01:04;;;;;;;7.05;3.70;;;28.10;59.20;;;;;;5072610;28;20052;-84
2021/06/18 09:03:38;;;;;;;6.20;3.35;;;28.50;59.60;;;;;;5073363;28;20025;-83
2021/06/18 09:06:27;;;;;;;7.75;3.20;;;29.00;58.90;;;;;;5071292;28;20143;-85
2021/06/18 09:09:17;;;;;;;8.38;3.05;;;29.40;57.70;;;;;;5072909;28;20021;-84
2021/06/18 09:11:46;;;;;;;7.82;3.97;;;29.70;56.20;;;;;;5073944;28;20055;-84
2021/06/18 09:14:22;;;;;;;9.60;3.95;;;29.80;55.30;;;;;;5072731;28;20082;-84
2021/06/18 09:17:17;;;;;;;5.10;3.88;;;29.70;54.60;;;;;;5060603;28;20094;-84
2021/06/18 09:19:51;;;;;;;6.45;4.30;;;29.40;55.40;;;;;;5072054;28;20023;-83
2021/06/18 09:22:23;;;;;;;5.55;3.50;;;29.30;55.40;;;;;;5052727;28;20037;-84
2021/06/18 09:25:18;;;;;;;8.98;3.80;;;29.40;55.40;;;;;;5050337;28;20021;-87
2021/06/18 09:27:51;;;;;;;9.57;3.50;;;29.30;56.00;;;;;;5051495;28;20422;-82
2021/06/18 09:30:26;;;;;;;9.43;4.07;;;29.50;55.60;;;;;;5052424;28;20074;-84
2021/06/18 09:32:55;;;;;;;8.38;3.92;;;29.70;55.90;;;;;;5052098;28;20040;-84
2021/06/18 09:35:21;;;;;;;7.07;3.50;;;29.80;55.80;;;;;;5052287;28;20035;-84
2021/06/18 09:37:56;;;;;;;3.95;3.10;;;30.00;55.50;;;;;;5052406;28;20029;-84
2021/06/18 09:40:26;;;;;;;8.63;3.50;;;30.10;55.70;;;;;;5065061;28;20175;-85
2021/06/18 09:43:00;;;;;;;9.93;3.30;;;30.30;55.40;;;;;;5071699;28;20032;-85
2021/06/18 09:45:30;;;;;;;5.63;3.10;;;30.40;55.60;;;;;;5071806;28;20078;-84
2021/06/18 09:48:20;;;;;;;8.23;3.08;;;30.60;55.30;;;;;;5071773;28;20027;-84
2021/06/18 09:50:48;;;;;;;11.00;3.88;;;30.50;54.60;;;;;;5074195;28;20025;-85
2021/06/18 09:53:21;;;;;;;4.53;3.10;;;30.20;54.50;;;;;;5072442;28;20036;-84
2021/06/18 09:56:10;;;;;;;8.52;3.22;;;29.80;54.50;;;;;;5071154;28;20063;-86
2021/06/18 09:58:41;;;;;;;6.35;3.13;;;29.30;54.60;;;;;;5072611;28;20021;-85
2021/06/18 10:01:17;;;;;;;8.45;3.22;;;28.70;55.70;;;;;;5072121;28;20485;-85
2021/06/18 10:04:05;;;;;;;5.55;3.25;;;28.30;56.60;;;;;;5072466;28;20055;-83
2021/06/18 10:06:34;;;;;;;5.25;3.13;;;28.00;57.70;;;;;;5073457;28;20024;-85
2021/06/18 10:09:00;;;;;;;4.13;3.45;;;27.80;58.50;;;;;;5077252;28;20020;-83
2021/06/18 10:11:28;;;;;;;5.65;3.05;;;27.90;59.00;;;;;;5072521;28;20025;-85
2021/06/18 10:13:55;;;;;;;7.97;3.72;;;28.00;59.00;;;;;;5081519;28;20020;-85
2021/06/18 10:16:22;;;;;;;4.35;3.35;;;28.10;58.90;;;;;;5078886;28;20031;-85
2021/06/18 10:18:49;;;;;;;7.05;3.42;;;28.20;58.90;;;;;;5078907;28;20470;-85
2021/06/18 10:21:20;;;;;;;4.97;3.13;;;28.20;59.30;;;;;;5076364;28;20035;-85
2021/06/18 10:23:50;;;;;;;4.28;3.20;;;28.40;59.30;;;;;;5076118;28;20115;-84
2021/06/18 10:26:17;;;;;;;7.50;3.67;;;28.40;59.30;;;;;;5080228;28;20058;-85
2021/06/18 10:28:57;;;;;;;79.68;8.65;;;28.40;59.40;;;;;;5080611;28;20092;-84
2021/06/18 10:31:28;;;;;;;14.35;4.10;;;28.40;59.40;;;;;;5073063;28;20028;-84
2021/06/18 10:34:16;;;;;;;21.67;3.85;;;28.30;58.50;;;;;;5072240;28;20865;-85
2021/06/18 10:36:44;;;;;;;33.67;5.07;;;28.00;57.80;;;;;;5077279;28;20047;-84
2021/06/18 10:39:20;;;;;;;6.07;3.60;;;27.70;58.90;;;;;;5077289;28;20481;-83
2021/06/18 10:41:58;;;;;;;6.20;3.35;;;27.60;59.30;;;;;;5076858;28;20027;-85
2021/06/18 10:44:39;;;;;;;5.10;2.83;;;27.30;59.80;;;;;;5077409;28;20021;-83
2021/06/18 10:47:06;;;;;;;7.43;3.20;;;27.40;60.10;;;;;;5077902;28;20032;-85
2021/06/18 10:49:39;;;;;;;5.68;3.28;;;27.60;60.30;;;;;;5075161;28;20037;-84
2021/06/18 10:52:19;;;;;;;4.65;3.13;;;27.70;60.50;;;;;;5077080;28;20056;-84
2021/06/18 10:54:54;;;;;;;5.78;3.30;;;27.70;60.30;;;;;;5075615;28;20049;-85
2021/06/18 10:57:25;;;;;;;4.22;2.90;;;27.50;60.20;;;;;;5078099;28;20037;-85
2021/06/18 10:59:56;;;;;;;4.85;3.05;;;27.40;60.90;;;;;;5076429;28;20016;-85
2021/06/18 11:04:52;;;;;;;7.70;3.50;;;27.20;61.50;;;;;;5074683;28;20060;-85
2021/06/18 11:07:24;;;;;;;6.75;3.38;;;27.00;61.90;;;;;;5074369;28;20036;-84
2021/06/18 11:09:58;;;;;;;6.68;3.10;;;26.90;62.30;;;;;;5074486;28;20024;-86
2021/06/18 11:12:24;;;;;;;9.75;3.78;;;26.80;62.50;;;;;;5075855;28;20033;-86
2021/06/18 11:14:51;;;;;;;6.45;4.05;;;26.70;63.00;;;;;;5074840;28;20361;-83
2021/06/18 11:17:43;;;;;;;4.60;3.22;;;26.70;63.40;;;;;;5074863;28;20154;-82
2021/06/18 11:20:10;;;;;;;5.50;3.63;;;26.60;63.40;;;;;;5074233;28;20073;-82
2021/06/18 11:22:46;;;;;;;4.45;3.38;;;26.60;64.10;;;;;;5074562;28;20027;-82
2021/06/18 11:25:37;;;;;;;5.20;3.28;;;26.60;63.90;;;;;;5074754;28;20017;-84
2021/06/18 11:28:32;;;;;;;6.07;3.25;;;26.50;64.30;;;;;;5073876;28;20032;-82
2021/06/18 11:31:05;;;;;;;4.70;3.20;;;26.50;64.60;;;;;;5071705;28;20086;-82
2021/06/18 11:33:40;;;;;;;5.82;3.13;;;26.50;64.40;;;;;;5074023;28;20025;-82
2021/06/18 11:36:07;;;;;;;3.28;2.97;;;26.40;64.70;;;;;;5073166;28;20559;-81
2021/06/18 11:38:37;;;;;;;5.97;3.20;;;26.40;64.80;;;;;;5073227;28;20044;-81
2021/06/18 11:41:09;;;;;;;19.88;11.43;;;26.30;64.60;;;;;;5073753;28;20055;-81
2021/06/18 11:43:37;;;;;;;13.50;5.60;;;26.30;64.60;;;;;;5073845;28;20052;-82
2021/06/18 11:46:03;;;;;;;32.45;21.98;;;26.20;64.50;;;;;;5073037;28;20028;-82
2021/06/18 11:48:30;;;;;;;10.38;4.40;;;26.30;64.90;;;;;;5074274;28;20027;-82
2021/06/18 11:50:56;;;;;;;14.45;10.10;;;26.30;64.60;;;;;;5074368;28;20021;-79
2021/06/18 11:53:21;;;;;;;6.15;4.15;;;26.40;64.60;;;;;;5073713;28;20086;-82
2021/06/18 11:56:03;;;;;;;9.32;4.38;;;26.40;64.30;;;;;;5074352;28;20688;-82
2021/06/18 11:58:30;;;;;;;9.13;3.60;;;26.30;64.50;;;;;;5074324;28;20528;-81
2021/06/18 12:00:56;;;;;;;6.03;3.65;;;26.30;64.50;;;;;;5073606;28;20021;-81
2021/06/18 12:03:32;;;;;;;5.95;3.60;;;26.30;64.60;;;;;;5074835;28;20363;-81
2021/06/18 12:06:12;;;;;;;6.18;3.00;;;26.30;64.80;;;;;;5074077;28;20494;-82
2021/06/18 12:08:38;;;;;;;5.82;4.03;;;26.30;64.60;;;;;;5074039;28;20035;-81
2021/06/18 12:11:14;;;;;;;5.88;3.10;;;26.30;65.00;;;;;;5074187;28;20127;-83
2021/06/18 12:13:50;;;;;;;28.80;17.80;;;26.40;64.70;;;;;;5073304;28;20016;-82
2021/06/18 12:16:16;;;;;;;4.38;3.40;;;26.40;64.80;;;;;;5074042;28;20047;-82
2021/06/18 12:18:42;;;;;;;15.98;9.23;;;26.30;64.70;;;;;;5072415;28;20025;-82
2021/06/18 12:21:09;;;;;;;11.27;5.78;;;26.20;65.10;;;;;;5073939;28;20107;-82
2021/06/18 12:23:34;;;;;;;6.57;4.47;;;26.30;65.80;;;;;;5073952;28;20024;-82
2021/06/18 12:26:00;;;;;;;4.18;3.55;;;26.40;66.00;;;;;;5073196;28;20021;-83
2021/06/18 12:28:26;;;;;;;6.65;3.60;;;26.50;65.30;;;;;;5074340;28;20052;-87
2021/06/18 12:30:56;;;;;;;6.00;3.40;;;26.40;65.30;;;;;;5074222;28;20032;-85
2021/06/18 12:33:22;;;;;;;7.90;3.85;;;26.40;65.70;;;;;;5073330;28;20036;-85
2021/06/18 12:35:50;;;;;;;4.50;3.22;;;26.40;65.60;;;;;;5077867;28;20497;-84
2021/06/18 12:38:16;;;;;;;5.10;3.50;;;26.30;66.00;;;;;;5075739;28;20069;-86
2021/06/18 12:40:48;;;;;;;5.45;3.53;;;26.40;65.60;;;;;;5073865;28;20352;-84
2021/06/18 12:43:16;;;;;;;3.70;3.10;;;26.30;65.60;;;;;;5072632;28;20467;-82
2021/06/18 12:45:46;;;;;;;6.72;3.67;;;26.30;65.80;;;;;;5075671;28;20483;-81
2021/06/18 12:48:18;;;;;;;5.63;3.40;;;26.30;65.90;;;;;;5071846;28;20417;-83
2021/06/18 12:50:47;;;;;;;;;;;26.40;65.60;;;;;;5076921;28;20162;-83
2021/06/18 12:53:15;;;;;;;7.10;4.00;;;26.40;65.60;;;;;;5072182;28;19908;-83
2021/06/18 12:55:43;;;;;;;7.13;3.75;;;26.40;65.90;;;;;;5071846;28;20045;-81
2021/06/18 12:58:14;;;;;;;5.22;3.50;;;26.50;66.00;;;;;;5071134;28;20034;-82